Terminal Aerodrome Forecast
Issued by NWS

Home | Current Version | Previous Version | Text Only | Print | Product List | Glossary On
Versions: 1 2 3 4 5 6 7 8 9 10 11 12 13
810
FTUS46 KLOX 190906 AAA
TAFPRB
TAF AMD
KPRB 190906Z 1909/2006 30008KT 3SM -SHRA OVC015
     FM191500 30008KT 6SM -SHRA BR BKN015 OVC025
     FM191800 32012KT P6SM BKN050
     FM200200 34010KT P6SM BKN050=

USA.gov is the U.S. government's official web portal to all federal, state and local government web resources and services.